sensor_id;sensor_type;location;lat;lon;timestamp;temperature;humidity
3001;DHT22;1510;51.072;6.678;2022-12-18T00:02:08;-5.70;99.90
3001;DHT22;1510;51.072;6.678;2022-12-18T00:04:34;-5.70;99.90
3001;DHT22;1510;51.072;6.678;2022-12-18T00:07:01;-5.80;99.90
3001;DHT22;1510;51.072;6.678;2022-12-18T00:09:28;-5.80;99.90
3001;DHT22;1510;51.072;6.678;2022-12-18T00:11:55;-5.90;99.90
3001;DHT22;1510;51.072;6.678;2022-12-18T00:14:21;-6.00;99.90
3001;DHT22;1510;51.072;6.678;2022-12-18T00:16:49;-5.90;99.90
3001;DHT22;1510;51.072;6.678;2022-12-18T00:19:16;-6.00;99.90
3001;DHT22;1510;51.072;6.678;2022-12-18T00:21:43;-6.10;99.90
3001;DHT22;1510;51.072;6.678;2022-12-18T00:24:11;-6.30;99.90
3001;DHT22;1510;51.072;6.678;2022-12-18T00:26:39;-6.30;99.90
3001;DHT22;1510;51.072;6.678;2022-12-18T00:29:07;-6.30;99.90
3001;DHT22;1510;51.072;6.678;2022-12-18T00:31:34;-6.10;99.90
3001;DHT22;1510;51.072;6.678;2022-12-18T00:34:03;-6.00;99.90
3001;DHT22;1510;51.072;6.678;2022-12-18T00:36:31;-6.10;99.90
3001;DHT22;1510;51.072;6.678;2022-12-18T00:39:00;-5.90;99.90
3001;DHT22;1510;51.072;6.678;2022-12-18T00:41:27;-6.00;99.90
3001;DHT22;1510;51.072;6.678;2022-12-18T00:44:26;-5.90;99.90
3001;DHT22;1510;51.072;6.678;2022-12-18T00:46:53;-5.70;99.90
3001;DHT22;1510;51.072;6.678;2022-12-18T00:49:21;-5.60;99.90
3001;DHT22;1510;51.072;6.678;2022-12-18T00:51:48;-5.70;99.90
3001;DHT22;1510;51.072;6.678;2022-12-18T00:54:15;-5.60;99.90
3001;DHT22;1510;51.072;6.678;2022-12-18T00:56:42;-5.50;99.90
3001;DHT22;1510;51.072;6.678;2022-12-18T00:59:09;-5.60;99.90
3001;DHT22;1510;51.072;6.678;2022-12-18T01:01:35;-5.50;99.90
3001;DHT22;1510;51.072;6.678;2022-12-18T01:04:03;-5.50;99.90
3001;DHT22;1510;51.072;6.678;2022-12-18T01:06:31;-5.50;99.90
3001;DHT22;1510;51.072;6.678;2022-12-18T01:08:58;-5.70;99.90
3001;DHT22;1510;51.072;6.678;2022-12-18T01:11:24;-5.80;99.90
3001;DHT22;1510;51.072;6.678;2022-12-18T01:13:52;-5.90;99.90
3001;DHT22;1510;51.072;6.678;2022-12-18T01:16:19;-6.00;99.90
3001;DHT22;1510;51.072;6.678;2022-12-18T01:18:46;-6.10;99.90
3001;DHT22;1510;51.072;6.678;2022-12-18T01:21:14;-6.10;99.90
3001;DHT22;1510;51.072;6.678;2022-12-18T01:23:43;-6.30;99.90
3001;DHT22;1510;51.072;6.678;2022-12-18T01:26:11;-6.30;99.90
3001;DHT22;1510;51.072;6.678;2022-12-18T01:28:38;-6.20;99.90
3001;DHT22;1510;51.072;6.678;2022-12-18T01:31:17;-6.30;99.90
3001;DHT22;1510;51.072;6.678;2022-12-18T01:33:44;-6.20;99.90
3001;DHT22;1510;51.072;6.678;2022-12-18T01:36:15;-6.20;99.90
3001;DHT22;1510;51.072;6.678;2022-12-18T01:38:44;-6.00;99.90
3001;DHT22;1510;51.072;6.678;2022-12-18T01:41:11;-5.90;99.90
3001;DHT22;1510;51.072;6.678;2022-12-18T01:43:52;-5.80;99.90
3001;DHT22;1510;51.072;6.678;2022-12-18T01:46:21;-5.80;99.90
3001;DHT22;1510;51.072;6.678;2022-12-18T01:48:50;-5.90;99.90
3001;DHT22;1510;51.072;6.678;2022-12-18T01:51:17;-6.00;99.90
3001;DHT22;1510;51.072;6.678;2022-12-18T01:53:47;-6.00;99.90
3001;DHT22;1510;51.072;6.678;2022-12-18T01:56:15;-6.10;99.90
3001;DHT22;1510;51.072;6.678;2022-12-18T01:58:50;-6.20;99.90
3001;DHT22;1510;51.072;6.678;2022-12-18T02:01:19;-6.30;99.90
3001;DHT22;1510;51.072;6.678;2022-12-18T02:03:46;-6.20;99.90
3001;DHT22;1510;51.072;6.678;2022-12-18T02:06:16;-6.30;99.90
3001;DHT22;1510;51.072;6.678;2022-12-18T02:08:52;-6.30;99.90
3001;DHT22;1510;51.072;6.678;2022-12-18T02:11:31;-6.40;99.90
3001;DHT22;1510;51.072;6.678;2022-12-18T02:14:04;-6.40;99.90
3001;DHT22;1510;51.072;6.678;2022-12-18T02:16:39;-6.40;99.90
3001;DHT22;1510;51.072;6.678;2022-12-18T02:19:16;-6.50;99.90
3001;DHT22;1510;51.072;6.678;2022-12-18T02:21:54;-6.40;99.90
3001;DHT22;1510;51.072;6.678;2022-12-18T02:24:34;-6.30;99.90
3001;DHT22;1510;51.072;6.678;2022-12-18T02:27:04;-6.40;99.90
3001;DHT22;1510;51.072;6.678;2022-12-18T02:29:35;-6.40;99.90
3001;DHT22;1510;51.072;6.678;2022-12-18T02:32:11;-6.40;99.90
3001;DHT22;1510;51.072;6.678;2022-12-18T02:34:40;-6.30;99.90
3001;DHT22;1510;51.072;6.678;2022-12-18T02:37:11;-6.40;99.90
3001;DHT22;1510;51.072;6.678;2022-12-18T02:39:41;-6.40;99.90
3001;DHT22;1510;51.072;6.678;2022-12-18T02:42:10;-6.40;99.90
3001;DHT22;1510;51.072;6.678;2022-12-18T02:44:42;-6.30;99.90
3001;DHT22;1510;51.072;6.678;2022-12-18T02:47:10;-6.30;99.90
3001;DHT22;1510;51.072;6.678;2022-12-18T02:49:44;-6.20;99.90
3001;DHT22;1510;51.072;6.678;2022-12-18T02:52:20;-6.20;99.90
3001;DHT22;1510;51.072;6.678;2022-12-18T02:54:57;-6.10;99.90
3001;DHT22;1510;51.072;6.678;2022-12-18T02:57:34;-6.10;99.90
3001;DHT22;1510;51.072;6.678;2022-12-18T03:00:03;-6.10;99.90
3001;DHT22;1510;51.072;6.678;2022-12-18T03:02:37;-6.10;99.90
3001;DHT22;1510;51.072;6.678;2022-12-18T03:05:10;-6.10;99.90
3001;DHT22;1510;51.072;6.678;2022-12-18T03:07:43;-6.10;99.90
3001;DHT22;1510;51.072;6.678;2022-12-18T03:10:14;-5.90;99.90
3001;DHT22;1510;51.072;6.678;2022-12-18T03:12:48;-5.90;99.90
3001;DHT22;1510;51.072;6.678;2022-12-18T03:15:21;-5.90;99.90
3001;DHT22;1510;51.072;6.678;2022-12-18T03:17:54;-5.70;99.90
3001;DHT22;1510;51.072;6.678;2022-12-18T03:20:23;-5.80;99.90
3001;DHT22;1510;51.072;6.678;2022-12-18T03:22:54;-5.80;99.90
3001;DHT22;1510;51.072;6.678;2022-12-18T03:25:22;-5.70;99.90
3001;DHT22;1510;51.072;6.678;2022-12-18T03:27:53;-5.80;99.90
3001;DHT22;1510;51.072;6.678;2022-12-18T03:30:21;-5.70;99.90
3001;DHT22;1510;51.072;6.678;2022-12-18T03:32:52;-5.80;99.90
3001;DHT22;1510;51.072;6.678;2022-12-18T03:35:24;-5.80;99.90
3001;DHT22;1510;51.072;6.678;2022-12-18T03:37:53;-5.80;99.90
3001;DHT22;1510;51.072;6.678;2022-12-18T03:40:21;-5.90;99.90
3001;DHT22;1510;51.072;6.678;2022-12-18T03:42:57;-5.90;99.90
3001;DHT22;1510;51.072;6.678;2022-12-18T03:45:32;-6.00;99.90
3001;DHT22;1510;51.072;6.678;2022-12-18T03:48:03;-6.20;99.90
3001;DHT22;1510;51.072;6.678;2022-12-18T03:50:39;-6.20;99.90
3001;DHT22;1510;51.072;6.678;2022-12-18T03:53:19;-6.30;99.90
3001;DHT22;1510;51.072;6.678;2022-12-18T03:55:49;-6.30;99.90
3001;DHT22;1510;51.072;6.678;2022-12-18T03:58:20;-6.30;99.90
3001;DHT22;1510;51.072;6.678;2022-12-18T04:00:51;-6.20;99.90
3001;DHT22;1510;51.072;6.678;2022-12-18T04:03:20;-6.30;99.90
3001;DHT22;1510;51.072;6.678;2022-12-18T04:05:49;-6.30;99.90
3001;DHT22;1510;51.072;6.678;2022-12-18T04:08:17;-6.30;99.90
3001;DHT22;1510;51.072;6.678;2022-12-18T04:10:44;-6.30;99.90
3001;DHT22;1510;51.072;6.678;2022-12-18T04:13:11;-6.20;99.90
3001;DHT22;1510;51.072;6.678;2022-12-18T04:15:39;-6.30;99.90
3001;DHT22;1510;51.072;6.678;2022-12-18T04:18:07;-6.20;99.90
3001;DHT22;1510;51.072;6.678;2022-12-18T04:20:34;-6.10;99.90
3001;DHT22;1510;51.072;6.678;2022-12-18T04:23:01;-6.20;99.90
3001;DHT22;1510;51.072;6.678;2022-12-18T04:25:27;-6.20;99.90
3001;DHT22;1510;51.072;6.678;2022-12-18T04:27:54;-6.00;99.90
3001;DHT22;1510;51.072;6.678;2022-12-18T04:30:21;-5.90;99.90
3001;DHT22;1510;51.072;6.678;2022-12-18T04:32:49;-5.90;99.90
3001;DHT22;1510;51.072;6.678;2022-12-18T04:35:16;-5.80;99.90
3001;DHT22;1510;51.072;6.678;2022-12-18T04:37:42;-5.90;99.90
3001;DHT22;1510;51.072;6.678;2022-12-18T04:40:10;-6.00;99.90
3001;DHT22;1510;51.072;6.678;2022-12-18T04:42:38;-6.00;99.90
3001;DHT22;1510;51.072;6.678;2022-12-18T04:45:06;-5.90;99.90
3001;DHT22;1510;51.072;6.678;2022-12-18T04:47:33;-6.00;99.90
3001;DHT22;1510;51.072;6.678;2022-12-18T04:50:01;-5.90;99.90
3001;DHT22;1510;51.072;6.678;2022-12-18T04:52:31;-5.80;99.90
3001;DHT22;1510;51.072;6.678;2022-12-18T04:54:58;-5.80;99.90
3001;DHT22;1510;51.072;6.678;2022-12-18T04:57:26;-5.90;99.90
3001;DHT22;1510;51.072;6.678;2022-12-18T04:59:53;-5.90;99.90
3001;DHT22;1510;51.072;6.678;2022-12-18T05:02:20;-5.90;99.90
3001;DHT22;1510;51.072;6.678;2022-12-18T05:04:46;-6.00;99.90
3001;DHT22;1510;51.072;6.678;2022-12-18T05:07:14;-6.00;99.90
3001;DHT22;1510;51.072;6.678;2022-12-18T05:09:41;-5.90;99.90
3001;DHT22;1510;51.072;6.678;2022-12-18T05:12:08;-6.00;99.90
3001;DHT22;1510;51.072;6.678;2022-12-18T05:14:35;-5.90;99.90
3001;DHT22;1510;51.072;6.678;2022-12-18T05:17:01;-5.80;99.90
3001;DHT22;1510;51.072;6.678;2022-12-18T05:19:28;-5.70;99.90
3001;DHT22;1510;51.072;6.678;2022-12-18T05:21:55;-5.80;99.90
3001;DHT22;1510;51.072;6.678;2022-12-18T05:24:23;-5.70;99.90
3001;DHT22;1510;51.072;6.678;2022-12-18T05:26:49;-5.90;99.90
3001;DHT22;1510;51.072;6.678;2022-12-18T05:29:16;-5.80;99.90
3001;DHT22;1510;51.072;6.678;2022-12-18T05:31:43;-5.80;99.90
3001;DHT22;1510;51.072;6.678;2022-12-18T05:34:09;-5.80;99.90
3001;DHT22;1510;51.072;6.678;2022-12-18T05:36:36;-5.90;99.90
3001;DHT22;1510;51.072;6.678;2022-12-18T05:39:03;-5.90;99.90
3001;DHT22;1510;51.072;6.678;2022-12-18T05:41:31;-6.00;99.90
3001;DHT22;1510;51.072;6.678;2022-12-18T05:43:58;-6.00;99.90
3001;DHT22;1510;51.072;6.678;2022-12-18T05:46:26;-6.00;99.90
3001;DHT22;1510;51.072;6.678;2022-12-18T05:48:52;-6.00;99.90
3001;DHT22;1510;51.072;6.678;2022-12-18T05:51:21;-6.00;99.90
3001;DHT22;1510;51.072;6.678;2022-12-18T05:53:48;-6.00;99.90
3001;DHT22;1510;51.072;6.678;2022-12-18T05:56:17;-6.00;99.90
3001;DHT22;1510;51.072;6.678;2022-12-18T05:58:46;-5.90;99.90
3001;DHT22;1510;51.072;6.678;2022-12-18T06:01:16;-5.80;99.90
3001;DHT22;1510;51.072;6.678;2022-12-18T06:03:43;-5.90;99.90
3001;DHT22;1510;51.072;6.678;2022-12-18T06:06:14;-5.90;99.90
3001;DHT22;1510;51.072;6.678;2022-12-18T06:08:41;-5.90;99.90
3001;DHT22;1510;51.072;6.678;2022-12-18T06:11:08;-5.80;99.90
3001;DHT22;1510;51.072;6.678;2022-12-18T06:13:34;-5.70;99.90
3001;DHT22;1510;51.072;6.678;2022-12-18T06:16:03;-5.80;99.90
3001;DHT22;1510;51.072;6.678;2022-12-18T06:18:30;-5.70;99.90
3001;DHT22;1510;51.072;6.678;2022-12-18T06:20:58;-5.70;99.90
3001;DHT22;1510;51.072;6.678;2022-12-18T06:23:25;-5.70;99.90
3001;DHT22;1510;51.072;6.678;2022-12-18T06:25:52;-5.60;99.90
3001;DHT22;1510;51.072;6.678;2022-12-18T06:28:19;-5.50;99.90
3001;DHT22;1510;51.072;6.678;2022-12-18T06:30:46;-5.40;99.90
3001;DHT22;1510;51.072;6.678;2022-12-18T06:33:31;-5.30;99.90
3001;DHT22;1510;51.072;6.678;2022-12-18T06:36:13;-5.30;99.90
3001;DHT22;1510;51.072;6.678;2022-12-18T06:38:42;-5.20;99.90
3001;DHT22;1510;51.072;6.678;2022-12-18T06:41:11;-5.10;99.90
3001;DHT22;1510;51.072;6.678;2022-12-18T06:44:10;-5.10;99.90
3001;DHT22;1510;51.072;6.678;2022-12-18T06:46:37;-5.10;99.90
3001;DHT22;1510;51.072;6.678;2022-12-18T06:49:30;-5.20;99.90
3001;DHT22;1510;51.072;6.678;2022-12-18T06:51:57;-5.20;99.90
3001;DHT22;1510;51.072;6.678;2022-12-18T06:54:24;-5.10;99.90
3001;DHT22;1510;51.072;6.678;2022-12-18T06:56:50;-5.00;99.90
3001;DHT22;1510;51.072;6.678;2022-12-18T06:59:17;-5.00;99.90
3001;DHT22;1510;51.072;6.678;2022-12-18T07:01:44;-5.00;99.90
3001;DHT22;1510;51.072;6.678;2022-12-18T07:04:11;-5.10;99.90
3001;DHT22;1510;51.072;6.678;2022-12-18T07:06:39;-5.20;99.90
3001;DHT22;1510;51.072;6.678;2022-12-18T07:09:05;-5.10;99.90
3001;DHT22;1510;51.072;6.678;2022-12-18T07:11:32;-5.20;99.90
3001;DHT22;1510;51.072;6.678;2022-12-18T07:13:59;-5.10;99.90
3001;DHT22;1510;51.072;6.678;2022-12-18T07:16:26;-5.10;99.90
3001;DHT22;1510;51.072;6.678;2022-12-18T07:18:54;-5.20;99.90
3001;DHT22;1510;51.072;6.678;2022-12-18T07:26:59;-5.20;99.90
3001;DHT22;1510;51.072;6.678;2022-12-18T07:29:26;-5.20;99.90
3001;DHT22;1510;51.072;6.678;2022-12-18T07:31:53;-5.10;99.90
3001;DHT22;1510;51.072;6.678;2022-12-18T07:34:19;-5.00;99.90
3001;DHT22;1510;51.072;6.678;2022-12-18T07:36:48;-5.10;99.90
3001;DHT22;1510;51.072;6.678;2022-12-18T07:39:15;-5.10;99.90
3001;DHT22;1510;51.072;6.678;2022-12-18T07:41:42;-5.10;99.90
3001;DHT22;1510;51.072;6.678;2022-12-18T07:44:12;-5.20;99.90
3001;DHT22;1510;51.072;6.678;2022-12-18T07:46:39;-5.20;99.90
3001;DHT22;1510;51.072;6.678;2022-12-18T07:49:06;-5.20;99.90
3001;DHT22;1510;51.072;6.678;2022-12-18T07:51:33;-5.10;99.90
3001;DHT22;1510;51.072;6.678;2022-12-18T07:53:59;-5.10;99.90
3001;DHT22;1510;51.072;6.678;2022-12-18T07:56:26;-5.20;99.90
3001;DHT22;1510;51.072;6.678;2022-12-18T07:58:53;-5.20;99.90
3001;DHT22;1510;51.072;6.678;2022-12-18T08:01:21;-5.20;99.90
3001;DHT22;1510;51.072;6.678;2022-12-18T08:03:48;-5.00;99.90
3001;DHT22;1510;51.072;6.678;2022-12-18T08:06:15;-5.10;99.90
3001;DHT22;1510;51.072;6.678;2022-12-18T08:08:41;-5.10;99.90
3001;DHT22;1510;51.072;6.678;2022-12-18T08:11:08;-5.10;99.90
3001;DHT22;1510;51.072;6.678;2022-12-18T08:13:35;-5.00;99.90
3001;DHT22;1510;51.072;6.678;2022-12-18T08:16:03;-5.10;99.90
3001;DHT22;1510;51.072;6.678;2022-12-18T08:18:33;-4.90;99.90
3001;DHT22;1510;51.072;6.678;2022-12-18T08:21:08;-4.70;99.90
3001;DHT22;1510;51.072;6.678;2022-12-18T08:23:34;-4.70;99.90
3001;DHT22;1510;51.072;6.678;2022-12-18T08:26:01;-4.50;99.90
3001;DHT22;1510;51.072;6.678;2022-12-18T08:28:28;-4.50;99.90
3001;DHT22;1510;51.072;6.678;2022-12-18T08:30:54;-4.40;99.90
3001;DHT22;1510;51.072;6.678;2022-12-18T08:33:21;-4.30;99.90
3001;DHT22;1510;51.072;6.678;2022-12-18T08:35:49;-4.30;99.90
3001;DHT22;1510;51.072;6.678;2022-12-18T08:38:16;-4.10;99.90
3001;DHT22;1510;51.072;6.678;2022-12-18T08:40:43;-4.10;99.90
3001;DHT22;1510;51.072;6.678;2022-12-18T08:43:10;-4.00;99.90
3001;DHT22;1510;51.072;6.678;2022-12-18T08:45:55;-3.80;99.90
3001;DHT22;1510;51.072;6.678;2022-12-18T08:48:22;-3.80;99.90
3001;DHT22;1510;51.072;6.678;2022-12-18T08:50:55;-3.80;99.90
3001;DHT22;1510;51.072;6.678;2022-12-18T08:53:22;-3.60;99.90
3001;DHT22;1510;51.072;6.678;2022-12-18T08:55:49;-3.60;99.90
3001;DHT22;1510;51.072;6.678;2022-12-18T08:58:16;-3.50;99.90
3001;DHT22;1510;51.072;6.678;2022-12-18T09:00:43;-3.40;99.90
3001;DHT22;1510;51.072;6.678;2022-12-18T09:03:11;-3.40;99.90
3001;DHT22;1510;51.072;6.678;2022-12-18T09:05:38;-3.40;99.90
3001;DHT22;1510;51.072;6.678;2022-12-18T09:08:06;-3.30;99.90
3001;DHT22;1510;51.072;6.678;2022-12-18T09:10:33;-3.30;99.90
3001;DHT22;1510;51.072;6.678;2022-12-18T09:13:00;-3.20;99.90
3001;DHT22;1510;51.072;6.678;2022-12-18T09:15:27;-3.30;99.90
3001;DHT22;1510;51.072;6.678;2022-12-18T09:17:53;-3.20;99.90
3001;DHT22;1510;51.072;6.678;2022-12-18T09:20:20;-3.20;99.90
3001;DHT22;1510;51.072;6.678;2022-12-18T09:22:47;-3.10;99.90
3001;DHT22;1510;51.072;6.678;2022-12-18T09:25:15;-3.00;99.90
3001;DHT22;1510;51.072;6.678;2022-12-18T09:27:41;-3.00;99.90
3001;DHT22;1510;51.072;6.678;2022-12-18T09:30:09;-2.90;99.90
3001;DHT22;1510;51.072;6.678;2022-12-18T09:32:36;-2.60;99.90
3001;DHT22;1510;51.072;6.678;2022-12-18T09:35:03;-2.70;99.90
3001;DHT22;1510;51.072;6.678;2022-12-18T09:37:30;-2.50;99.90
3001;DHT22;1510;51.072;6.678;2022-12-18T09:39:57;-2.50;99.90
3001;DHT22;1510;51.072;6.678;2022-12-18T09:42:25;-2.40;99.90
3001;DHT22;1510;51.072;6.678;2022-12-18T09:44:53;-2.30;99.90
3001;DHT22;1510;51.072;6.678;2022-12-18T09:47:23;-2.40;99.90
3001;DHT22;1510;51.072;6.678;2022-12-18T09:49:52;-2.30;99.90
3001;DHT22;1510;51.072;6.678;2022-12-18T09:52:24;-2.20;99.90
3001;DHT22;1510;51.072;6.678;2022-12-18T09:54:56;-2.20;99.90
3001;DHT22;1510;51.072;6.678;2022-12-18T09:57:25;-2.20;99.90
3001;DHT22;1510;51.072;6.678;2022-12-18T09:59:55;-2.10;99.90
3001;DHT22;1510;51.072;6.678;2022-12-18T10:02:24;-2.00;99.90
3001;DHT22;1510;51.072;6.678;2022-12-18T10:05:01;-1.90;99.90
3001;DHT22;1510;51.072;6.678;2022-12-18T10:07:35;-2.00;99.90
3001;DHT22;1510;51.072;6.678;2022-12-18T10:10:09;-1.90;99.90
3001;DHT22;1510;51.072;6.678;2022-12-18T10:12:43;-1.80;99.90
3001;DHT22;1510;51.072;6.678;2022-12-18T10:15:21;-1.70;99.90
3001;DHT22;1510;51.072;6.678;2022-12-18T10:17:54;-1.70;99.90
3001;DHT22;1510;51.072;6.678;2022-12-18T10:20:27;-1.70;99.90
3001;DHT22;1510;51.072;6.678;2022-12-18T10:23:01;-1.60;99.90
3001;DHT22;1510;51.072;6.678;2022-12-18T10:25:36;-1.50;99.90
3001;DHT22;1510;51.072;6.678;2022-12-18T10:28:11;-1.40;99.90
3001;DHT22;1510;51.072;6.678;2022-12-18T10:30:39;-1.40;99.90
3001;DHT22;1510;51.072;6.678;2022-12-18T10:33:11;-1.30;99.90
3001;DHT22;1510;51.072;6.678;2022-12-18T10:35:41;-1.30;99.90
3001;DHT22;1510;51.072;6.678;2022-12-18T10:38:21;-1.20;99.90
3001;DHT22;1510;51.072;6.678;2022-12-18T10:40:51;-1.20;99.90
3001;DHT22;1510;51.072;6.678;2022-12-18T10:43:23;-1.10;99.90
3001;DHT22;1510;51.072;6.678;2022-12-18T10:46:11;-1.10;99.90
3001;DHT22;1510;51.072;6.678;2022-12-18T10:48:51;-1.10;99.90
3001;DHT22;1510;51.072;6.678;2022-12-18T10:51:23;-1.00;99.90
3001;DHT22;1510;51.072;6.678;2022-12-18T10:53:54;-1.10;99.90
3001;DHT22;1510;51.072;6.678;2022-12-18T10:56:22;-1.00;99.90
3001;DHT22;1510;51.072;6.678;2022-12-18T10:58:58;-0.90;99.90
3001;DHT22;1510;51.072;6.678;2022-12-18T11:01:25;-0.80;99.90
3001;DHT22;1510;51.072;6.678;2022-12-18T11:04:08;-0.70;99.90
3001;DHT22;1510;51.072;6.678;2022-12-18T11:06:52;-0.80;99.90
3001;DHT22;1510;51.072;6.678;2022-12-18T11:09:21;-0.60;99.90
3001;DHT22;1510;51.072;6.678;2022-12-18T11:11:48;-0.60;99.90
3001;DHT22;1510;51.072;6.678;2022-12-18T11:14:24;-0.60;99.90
3001;DHT22;1510;51.072;6.678;2022-12-18T11:16:52;-0.60;99.90
3001;DHT22;1510;51.072;6.678;2022-12-18T11:19:32;-0.70;99.90
3001;DHT22;1510;51.072;6.678;2022-12-18T11:22:00;-0.60;99.90
3001;DHT22;1510;51.072;6.678;2022-12-18T11:24:29;-0.50;99.90
3001;DHT22;1510;51.072;6.678;2022-12-18T11:26:57;-0.50;99.90
3001;DHT22;1510;51.072;6.678;2022-12-18T11:29:31;-0.50;99.90
3001;DHT22;1510;51.072;6.678;2022-12-18T11:35:15;-0.40;99.90
3001;DHT22;1510;51.072;6.678;2022-12-18T11:37:47;-0.30;99.90
3001;DHT22;1510;51.072;6.678;2022-12-18T11:40:17;-0.40;99.90
3001;DHT22;1510;51.072;6.678;2022-12-18T11:42:50;-0.40;99.90
3001;DHT22;1510;51.072;6.678;2022-12-18T11:45:26;-0.40;99.90
3001;DHT22;1510;51.072;6.678;2022-12-18T11:47:58;-0.30;99.90
3001;DHT22;1510;51.072;6.678;2022-12-18T11:50:30;-0.30;99.90
3001;DHT22;1510;51.072;6.678;2022-12-18T11:52:57;-0.30;99.90
3001;DHT22;1510;51.072;6.678;2022-12-18T11:55:31;-0.30;99.90
3001;DHT22;1510;51.072;6.678;2022-12-18T11:58:07;-0.40;99.90
3001;DHT22;1510;51.072;6.678;2022-12-18T12:00:42;-0.30;99.90
3001;DHT22;1510;51.072;6.678;2022-12-18T12:03:36;-0.30;99.90
3001;DHT22;1510;51.072;6.678;2022-12-18T12:06:11;-0.40;99.90
3001;DHT22;1510;51.072;6.678;2022-12-18T12:08:49;-0.40;99.90
3001;DHT22;1510;51.072;6.678;2022-12-18T12:11:28;-0.40;99.90
3001;DHT22;1510;51.072;6.678;2022-12-18T12:14:10;-0.40;99.90
3001;DHT22;1510;51.072;6.678;2022-12-18T12:16:48;-0.40;99.90
3001;DHT22;1510;51.072;6.678;2022-12-18T12:19:26;-0.30;99.90
3001;DHT22;1510;51.072;6.678;2022-12-18T12:22:04;-0.30;99.90
3001;DHT22;1510;51.072;6.678;2022-12-18T12:24:44;-0.30;99.90
3001;DHT22;1510;51.072;6.678;2022-12-18T12:27:20;-0.20;99.90
3001;DHT22;1510;51.072;6.678;2022-12-18T12:29:57;-0.40;99.90
3001;DHT22;1510;51.072;6.678;2022-12-18T12:32:37;-0.20;99.90
3001;DHT22;1510;51.072;6.678;2022-12-18T12:35:16;-0.20;99.90
3001;DHT22;1510;51.072;6.678;2022-12-18T12:37:51;-0.30;99.90
3001;DHT22;1510;51.072;6.678;2022-12-18T12:40:23;-0.30;99.90
3001;DHT22;1510;51.072;6.678;2022-12-18T12:42:54;-0.30;99.90
3001;DHT22;1510;51.072;6.678;2022-12-18T12:45:42;-0.30;99.90
3001;DHT22;1510;51.072;6.678;2022-12-18T12:48:18;-0.40;99.90
3001;DHT22;1510;51.072;6.678;2022-12-18T12:50:45;-0.20;99.90
3001;DHT22;1510;51.072;6.678;2022-12-18T12:53:21;-0.20;99.90
3001;DHT22;1510;51.072;6.678;2022-12-18T12:55:48;-0.10;99.90
3001;DHT22;1510;51.072;6.678;2022-12-18T12:58:26;-0.30;99.90
3001;DHT22;1510;51.072;6.678;2022-12-18T13:01:04;-0.30;99.50
3001;DHT22;1510;51.072;6.678;2022-12-18T13:03:43;-0.20;99.90
3001;DHT22;1510;51.072;6.678;2022-12-18T13:06:16;-0.20;99.90
3001;DHT22;1510;51.072;6.678;2022-12-18T13:08:55;-0.30;99.90
3001;DHT22;1510;51.072;6.678;2022-12-18T13:11:32;-0.30;99.90
3001;DHT22;1510;51.072;6.678;2022-12-18T13:14:25;-0.30;99.50
3001;DHT22;1510;51.072;6.678;2022-12-18T13:17:24;-0.30;99.40
3001;DHT22;1510;51.072;6.678;2022-12-18T13:20:09;-0.30;99.30
3001;DHT22;1510;51.072;6.678;2022-12-18T13:22:38;-0.40;99.40
3001;DHT22;1510;51.072;6.678;2022-12-18T13:28:12;-0.30;98.70
3001;DHT22;1510;51.072;6.678;2022-12-18T13:30:51;-0.50;98.90
3001;DHT22;1510;51.072;6.678;2022-12-18T13:33:41;-0.40;98.80
3001;DHT22;1510;51.072;6.678;2022-12-18T13:36:33;-0.40;99.80
3001;DHT22;1510;51.072;6.678;2022-12-18T13:39:25;-0.40;98.80
3001;DHT22;1510;51.072;6.678;2022-12-18T13:45:35;-0.50;99.30
3001;DHT22;1510;51.072;6.678;2022-12-18T13:48:03;-0.50;98.80
3001;DHT22;1510;51.072;6.678;2022-12-18T13:50:30;-0.50;98.90
3001;DHT22;1510;51.072;6.678;2022-12-18T13:52:58;-0.50;99.50
3001;DHT22;1510;51.072;6.678;2022-12-18T13:55:25;-0.60;99.40
3001;DHT22;1510;51.072;6.678;2022-12-18T13:58:03;-0.60;98.70
3001;DHT22;1510;51.072;6.678;2022-12-18T14:00:30;-0.60;99.20
3001;DHT22;1510;51.072;6.678;2022-12-18T14:02:58;-0.60;99.00
3001;DHT22;1510;51.072;6.678;2022-12-18T14:05:26;-0.60;98.90
3001;DHT22;1510;51.072;6.678;2022-12-18T14:07:54;-0.70;99.00
3001;DHT22;1510;51.072;6.678;2022-12-18T14:10:22;-0.60;99.40
3001;DHT22;1510;51.072;6.678;2022-12-18T14:12:50;-0.60;99.20
3001;DHT22;1510;51.072;6.678;2022-12-18T14:15:27;-0.80;98.90
3001;DHT22;1510;51.072;6.678;2022-12-18T14:17:59;-0.70;99.30
3001;DHT22;1510;51.072;6.678;2022-12-18T14:20:29;-0.80;99.00
3001;DHT22;1510;51.072;6.678;2022-12-18T14:22:58;-0.80;99.70
3001;DHT22;1510;51.072;6.678;2022-12-18T14:25:28;-0.70;99.30
3001;DHT22;1510;51.072;6.678;2022-12-18T14:28:04;-0.90;99.30
3001;DHT22;1510;51.072;6.678;2022-12-18T14:30:36;-0.70;99.60
3001;DHT22;1510;51.072;6.678;2022-12-18T14:33:05;-0.80;99.60
3001;DHT22;1510;51.072;6.678;2022-12-18T14:35:32;-0.90;99.60
3001;DHT22;1510;51.072;6.678;2022-12-18T14:38:20;-0.90;99.30
3001;DHT22;1510;51.072;6.678;2022-12-18T14:40:52;-0.90;99.70
3001;DHT22;1510;51.072;6.678;2022-12-18T14:43:19;-0.80;99.70
3001;DHT22;1510;51.072;6.678;2022-12-18T14:45:46;-0.90;99.70
3001;DHT22;1510;51.072;6.678;2022-12-18T14:48:16;-0.90;99.90
3001;DHT22;1510;51.072;6.678;2022-12-18T14:50:43;-0.80;99.60
3001;DHT22;1510;51.072;6.678;2022-12-18T14:53:20;-0.90;99.70
3001;DHT22;1510;51.072;6.678;2022-12-18T14:55:49;-0.90;99.60
3001;DHT22;1510;51.072;6.678;2022-12-18T14:58:17;-0.90;99.80
3001;DHT22;1510;51.072;6.678;2022-12-18T15:00:44;-1.00;99.70
3001;DHT22;1510;51.072;6.678;2022-12-18T15:03:16;-0.90;99.90
3001;DHT22;1510;51.072;6.678;2022-12-18T15:05:44;-1.00;99.90
3001;DHT22;1510;51.072;6.678;2022-12-18T15:08:28;-1.00;99.90
3001;DHT22;1510;51.072;6.678;2022-12-18T15:10:57;-1.00;99.50
3001;DHT22;1510;51.072;6.678;2022-12-18T15:13:24;-1.00;99.60
3001;DHT22;1510;51.072;6.678;2022-12-18T15:15:52;-0.90;99.90
3001;DHT22;1510;51.072;6.678;2022-12-18T15:18:21;-1.00;99.90
3001;DHT22;1510;51.072;6.678;2022-12-18T15:20:51;-1.00;99.90
3001;DHT22;1510;51.072;6.678;2022-12-18T15:23:20;-1.00;99.90
3001;DHT22;1510;51.072;6.678;2022-12-18T15:25:49;-1.00;99.90
3001;DHT22;1510;51.072;6.678;2022-12-18T15:28:24;-1.10;99.90
3001;DHT22;1510;51.072;6.678;2022-12-18T15:31:04;-0.90;99.90
3001;DHT22;1510;51.072;6.678;2022-12-18T15:33:34;-1.00;99.90
3001;DHT22;1510;51.072;6.678;2022-12-18T15:36:03;-1.00;99.90
3001;DHT22;1510;51.072;6.678;2022-12-18T15:38:30;-1.00;99.90
3001;DHT22;1510;51.072;6.678;2022-12-18T15:40:57;-1.10;99.90
3001;DHT22;1510;51.072;6.678;2022-12-18T15:43:26;-1.10;99.90
3001;DHT22;1510;51.072;6.678;2022-12-18T15:46:03;-1.10;99.90
3001;DHT22;1510;51.072;6.678;2022-12-18T15:48:32;-1.10;99.90
3001;DHT22;1510;51.072;6.678;2022-12-18T15:50:59;-1.20;99.90
3001;DHT22;1510;51.072;6.678;2022-12-18T15:53:30;-1.20;99.90
3001;DHT22;1510;51.072;6.678;2022-12-18T15:55:58;-1.20;99.90
3001;DHT22;1510;51.072;6.678;2022-12-18T15:58:44;-1.20;99.90
3001;DHT22;1510;51.072;6.678;2022-12-18T16:01:11;-1.20;99.90
3001;DHT22;1510;51.072;6.678;2022-12-18T16:03:38;-1.20;99.90
3001;DHT22;1510;51.072;6.678;2022-12-18T16:06:05;-1.20;99.90
3001;DHT22;1510;51.072;6.678;2022-12-18T16:08:32;-1.10;99.90
3001;DHT22;1510;51.072;6.678;2022-12-18T16:10:59;-1.10;99.90
3001;DHT22;1510;51.072;6.678;2022-12-18T16:13:26;-1.20;99.90
3001;DHT22;1510;51.072;6.678;2022-12-18T16:15:54;-1.20;99.90
3001;DHT22;1510;51.072;6.678;2022-12-18T16:18:21;-1.30;99.90
3001;DHT22;1510;51.072;6.678;2022-12-18T16:20:48;-1.10;99.90
3001;DHT22;1510;51.072;6.678;2022-12-18T16:23:14;-1.10;99.90
3001;DHT22;1510;51.072;6.678;2022-12-18T16:25:41;-1.10;99.90
3001;DHT22;1510;51.072;6.678;2022-12-18T16:28:08;-1.20;99.90
3001;DHT22;1510;51.072;6.678;2022-12-18T16:30:34;-1.10;99.90
3001;DHT22;1510;51.072;6.678;2022-12-18T16:33:02;-1.20;99.90
3001;DHT22;1510;51.072;6.678;2022-12-18T16:35:29;-1.10;99.90
3001;DHT22;1510;51.072;6.678;2022-12-18T16:37:56;-1.10;99.90
3001;DHT22;1510;51.072;6.678;2022-12-18T16:40:22;-1.10;99.90